Time;durP1;ratioP1;P1;durP2;ratioP2;P2;SDS_P1;SDS_P2;PMS_P1;PMS_P2;Temp;Humidity;BMP_temperature;BMP_pressure;BME280_temperature;BME280_humidity;BME280_pressure;Samples;Min_cycle;Max_cycle;Signal;HPM_P1;HPM_P2
2022/07/16 00:01:22;;;;;;;;;4.00;3.75;;;;;24.17;33.95;101758.72;4884558;29;45483;-64
2022/07/16 00:03:50;;;;;;;;;3.00;3.00;;;;;24.17;33.69;101754.16;4883708;29;46343;-64
2022/07/16 00:06:16;;;;;;;;;5.00;3.75;;;;;24.19;33.90;101756.72;4884340;29;45411;-64
2022/07/16 00:08:41;;;;;;;;;6.00;3.00;;;;;24.16;34.12;101759.72;4881298;29;46020;-64
2022/07/16 00:11:07;;;;;;;;;3.50;3.50;;;;;24.18;34.16;101755.00;4883895;29;46218;-64
2022/07/16 00:13:32;;;;;;;;;3.75;3.75;;;;;24.16;33.89;101763.31;4884249;29;45558;-64
2022/07/16 00:15:57;;;;;;;;;4.00;3.00;;;;;24.20;34.29;101763.94;4884309;29;45378;-64
2022/07/16 00:21:06;;;;;;;;;5.00;3.00;;;;;24.14;33.82;101759.81;4882342;29;45428;-64
2022/07/16 00:23:32;;;;;;;;;5.00;3.75;;;;;24.16;34.37;101760.56;4881600;29;46812;-64
2022/07/16 00:25:57;;;;;;;;;3.75;3.00;;;;;24.16;34.02;101755.13;4884305;29;45518;-64
2022/07/16 00:28:22;;;;;;;;;2.00;2.00;;;;;24.12;34.49;101755.44;4884241;29;45374;-64
2022/07/16 00:30:48;;;;;;;;;3.75;3.00;;;;;24.10;34.34;101758.28;4884054;29;45438;-64
2022/07/16 00:33:13;;;;;;;;;2.75;2.75;;;;;24.10;34.53;101757.44;4883830;29;45430;-64
2022/07/16 00:35:38;;;;;;;;;2.75;1.75;;;;;24.09;34.14;101756.56;4884162;29;45442;-64
2022/07/16 00:38:04;;;;;;;;;4.75;4.00;;;;;24.11;34.56;101762.78;4880787;29;45381;-64
2022/07/16 00:40:30;;;;;;;;;3.00;3.00;;;;;24.09;34.64;101769.31;4884336;29;46349;-64
2022/07/16 00:42:55;;;;;;;;;8.25;4.00;;;;;24.06;34.51;101762.25;4883719;29;45415;-64
2022/07/16 00:45:20;;;;;;;;;4.25;3.00;;;;;24.05;34.48;101758.63;4886220;28;45495;-64
2022/07/16 00:47:46;;;;;;;;;5.00;3.50;;;;;24.06;34.50;101764.97;4883962;29;45363;-64
2022/07/16 00:50:11;;;;;;;;;3.50;2.50;;;;;24.06;34.69;101767.69;4883896;29;46838;-64
2022/07/16 00:52:37;;;;;;;;;3.75;3.00;;;;;24.03;34.37;101752.41;4882636;29;46562;-64
2022/07/16 00:55:03;;;;;;;;;5.75;4.75;;;;;24.03;35.21;101751.56;4883579;29;45405;-65
2022/07/16 00:57:29;;;;;;;;;7.25;7.00;;;;;23.99;34.72;101761.81;4883795;29;45479;-65
2022/07/16 00:59:54;;;;;;;;;4.00;4.00;;;;;23.95;34.66;101764.88;4885111;29;46028;-64
2022/07/16 01:02:19;;;;;;;;;3.50;3.50;;;;;23.92;34.90;101765.09;4883374;29;55450;-64
2022/07/16 01:04:45;;;;;;;;;4.75;4.25;;;;;23.93;35.04;101756.81;4882854;29;59907;-64
2022/07/16 01:07:11;;;;;;;;;5.50;5.00;;;;;23.89;35.04;101762.59;4883850;29;45370;-64
2022/07/16 01:09:37;;;;;;;;;3.00;3.00;;;;;23.86;34.94;101763.69;4882481;29;45570;-64
2022/07/16 01:12:02;;;;;;;;;4.00;4.00;;;;;23.82;34.85;101760.34;4883263;29;45462;-64
2022/07/16 01:14:29;;;;;;;;;3.00;3.00;;;;;23.81;35.04;101769.44;4883345;29;45452;-64
2022/07/16 01:16:54;;;;;;;;;3.75;3.75;;;;;23.84;34.98;101771.13;4882266;29;45318;-64
2022/07/16 01:19:20;;;;;;;;;3.25;3.25;;;;;23.83;35.34;101774.81;4883632;29;45395;-64
2022/07/16 01:21:45;;;;;;;;;3.50;2.75;;;;;23.67;34.97;101748.66;4883218;29;46494;-64
2022/07/16 01:24:11;;;;;;;;;3.00;2.50;;;;;23.76;35.44;101768.06;4883441;29;45415;-64
2022/07/16 01:26:36;;;;;;;;;2.50;2.50;;;;;23.75;35.41;101766.28;4883501;29;45521;-64
2022/07/16 01:29:02;;;;;;;;;5.00;3.50;;;;;23.71;35.16;101767.50;4883054;29;45525;-64
2022/07/16 01:31:28;;;;;;;;;4.25;3.00;;;;;23.63;35.46;101763.47;4883117;29;46165;-64
2022/07/16 01:36:40;;;;;;;;;5.00;4.50;;;;;23.59;35.39;101764.69;4881692;29;45458;-64
2022/07/16 01:39:06;;;;;;;;;4.00;4.00;;;;;23.58;35.61;101771.09;4882024;29;45513;-64
2022/07/16 01:41:32;;;;;;;;;4.00;4.00;;;;;23.50;35.60;101746.25;4883294;29;46121;-64
2022/07/16 01:43:57;;;;;;;;;4.00;4.00;;;;;23.58;36.03;101759.31;4884910;29;45471;-64
2022/07/16 01:46:23;;;;;;;;;6.00;4.50;;;;;23.60;35.66;101762.81;4883246;29;45448;-64
2022/07/16 01:48:48;;;;;;;;;5.75;4.00;;;;;23.51;35.74;101749.84;4879187;29;45469;-64
2022/07/16 01:51:13;;;;;;;;;4.00;4.00;;;;;23.57;35.79;101763.91;4878566;29;45400;-64
2022/07/16 01:53:39;;;;;;;;;4.75;3.50;;;;;23.58;35.74;101764.78;4865619;29;50247;-64
2022/07/16 01:56:05;;;;;;;;;3.25;3.25;;;;;23.53;35.78;101764.25;4866478;29;45612;-64
2022/07/16 01:58:30;;;;;;;;;3.25;3.00;;;;;23.53;35.87;101773.28;4866269;29;45222;-64
2022/07/16 02:00:56;;;;;;;;;4.00;4.00;;;;;23.47;35.89;101763.69;4865946;29;46778;-65
2022/07/16 02:03:21;;;;;;;;;4.25;3.75;;;;;23.45;35.89;101767.50;4868243;29;45214;-64
2022/07/16 02:05:47;;;;;;;;;3.50;2.00;;;;;23.36;35.93;101758.13;4868626;29;45304;-64
2022/07/16 02:08:12;;;;;;;;;5.25;4.00;;;;;23.34;36.18;101759.19;4881385;29;45228;-67
2022/07/16 02:10:38;;;;;;;;;5.50;4.25;;;;;23.33;36.14;101769.22;4886340;29;46246;-64
2022/07/16 02:13:04;;;;;;;;;4.50;4.50;;;;;23.30;36.20;101761.28;4880518;29;45307;-64
2022/07/16 02:15:30;;;;;;;;;3.00;3.00;;;;;23.31;36.00;101768.47;4870376;29;45436;-64
2022/07/16 02:17:56;;;;;;;;;4.25;4.00;;;;;23.29;36.34;101765.84;4865992;29;45534;-63
2022/07/16 02:20:21;;;;;;;;;4.00;4.00;;;;;23.27;36.37;101765.09;4869012;29;45474;-64
2022/07/16 02:22:47;;;;;;;;;4.00;4.00;;;;;23.25;36.31;101758.84;4880735;29;45391;-63
2022/07/16 02:25:12;;;;;;;;;5.00;3.75;;;;;23.26;36.04;101757.03;4865931;29;45343;-64
2022/07/16 02:28:05;;;;;;;;;5.00;5.00;;;;;23.26;36.46;101760.63;4865893;29;45513;-64
2022/07/16 02:30:25;;;;;;;;;6.00;6.00;;;;;23.23;36.28;101763.56;4865529;29;45340;-64
2022/07/16 02:32:50;;;;;;;;;6.00;6.00;;;;;23.20;36.12;101766.47;4865813;29;45457;-64
2022/07/16 02:35:15;;;;;;;;;6.50;6.00;;;;;23.24;36.21;101773.47;4865648;29;45505;-64
2022/07/16 02:37:41;;;;;;;;;4.75;4.75;;;;;23.24;36.48;101770.75;4873369;29;52200;-63
2022/07/16 02:40:07;;;;;;;;;4.25;4.25;;;;;23.22;36.85;101766.38;4880608;29;55443;-64
2022/07/16 02:42:33;;;;;;;;;5.00;4.00;;;;;23.21;36.61;101768.25;4876669;29;45499;-64
2022/07/16 02:44:58;;;;;;;;;5.00;5.00;;;;;23.21;36.54;101770.97;4884706;29;45228;-64
2022/07/16 02:47:23;;;;;;;;;6.25;6.25;;;;;23.22;36.65;101771.81;4868595;29;46987;-64
2022/07/16 02:49:49;;;;;;;;;6.25;5.50;;;;;23.20;36.35;101771.94;4865356;29;46004;-63
2022/07/16 02:52:14;;;;;;;;;4.25;4.25;;;;;23.19;36.57;101764.75;4865197;29;49129;-64
2022/07/16 02:54:39;;;;;;;;;4.00;4.00;;;;;23.17;36.96;101776.72;4865436;29;45272;-64
2022/07/16 02:57:04;;;;;;;;;6.00;4.00;;;;;23.11;37.17;101765.28;4865617;29;45317;-64
2022/07/16 02:59:30;;;;;;;;;4.50;3.00;;;;;23.06;36.93;101767.44;4865090;29;47898;-64
2022/07/16 03:01:55;;;;;;;;;5.00;5.00;;;;;23.03;36.85;101766.75;4865527;29;45503;-63
2022/07/16 03:04:20;;;;;;;;;2.00;1.50;;;;;23.02;36.86;101765.91;4865071;29;48335;-64
2022/07/16 03:06:46;;;;;;;;;4.00;4.00;;;;;22.96;36.95;101760.00;4864795;29;54160;-64
2022/07/16 03:09:11;;;;;;;;;5.75;3.75;;;;;22.90;36.81;101756.72;4892908;29;45367;-63
2022/07/16 03:11:36;;;;;;;;;5.50;5.00;;;;;22.94;37.07;101762.84;4881458;29;51792;-63
2022/07/16 03:14:02;;;;;;;;;5.00;4.75;;;;;22.94;37.05;101762.84;4881301;29;45339;-64
2022/07/16 03:16:27;;;;;;;;;4.00;4.00;;;;;22.95;37.17;101767.28;4868479;29;45300;-63
2022/07/16 03:18:52;;;;;;;;;6.50;4.75;;;;;22.93;37.09;101761.06;4868109;29;52873;-64
2022/07/16 03:21:17;;;;;;;;;7.00;5.00;;;;;22.93;36.96;101767.38;4868508;29;45313;-64
2022/07/16 03:23:43;;;;;;;;;6.00;4.50;;;;;22.94;37.42;101771.00;4875010;29;45292;-64
2022/07/16 03:26:08;;;;;;;;;4.50;4.25;;;;;22.94;37.57;101777.31;4868448;29;45458;-64
2022/07/16 03:28:35;;;;;;;;;3.75;3.75;;;;;22.96;37.45;101766.31;4867792;29;55804;-64
2022/07/16 03:31:00;;;;;;;;;4.50;4.50;;;;;22.96;37.16;101766.31;4868314;29;45203;-64
2022/07/16 03:33:26;;;;;;;;;5.25;4.00;;;;;22.94;37.12;101763.69;4868170;29;45209;-64
2022/07/16 03:35:51;;;;;;;;;5.50;4.75;;;;;22.89;37.00;101762.28;4874255;29;48784;-64
2022/07/16 03:41:00;;;;;;;;;4.50;3.75;;;;;22.80;37.53;101762.88;4892920;29;46605;-64
2022/07/16 03:43:28;;;;;;;;;5.00;5.00;;;;;22.81;37.53;101772.81;4886284;29;45434;-63
2022/07/16 03:45:53;;;;;;;;;3.00;3.00;;;;;22.77;37.54;101764.00;4887129;29;45232;-64
2022/07/16 03:48:19;;;;;;;;;5.00;3.75;;;;;22.74;37.73;101769.63;4868535;29;45309;-63
2022/07/16 03:50:44;;;;;;;;;3.50;3.50;;;;;22.73;37.73;101770.59;4868579;29;45238;-63
2022/07/16 03:53:09;;;;;;;;;4.00;4.00;;;;;22.74;37.36;101772.34;4867663;29;45360;-63
2022/07/16 03:55:34;;;;;;;;;4.00;4.00;;;;;22.73;38.06;101776.03;4869074;29;45222;-64
2022/07/16 03:58:00;;;;;;;;;3.00;3.00;;;;;22.70;37.63;101778.97;4867500;29;51954;-63
2022/07/16 04:00:25;;;;;;;;;4.50;4.00;;;;;22.67;37.83;101773.72;4867646;29;53319;-64
2022/07/16 04:02:50;;;;;;;;;3.75;3.75;;;;;22.64;38.19;101771.22;4882191;29;45447;-64
2022/07/16 04:05:16;;;;;;;;;6.75;5.00;;;;;22.61;38.09;101766.84;4867746;29;45241;-63
2022/07/16 04:07:41;;;;;;;;;4.25;4.25;;;;;22.57;37.92;101773.50;4878777;29;46718;-63
2022/07/16 04:10:07;;;;;;;;;3.50;3.50;;;;;22.55;37.97;101779.03;4893118;29;45330;-64
2022/07/16 04:12:32;;;;;;;;;3.00;3.00;;;;;22.56;38.04;101782.63;4883947;29;45304;-64
2022/07/16 04:14:59;;;;;;;;;5.00;5.00;;;;;22.53;38.34;101780.09;4896375;29;45290;-63
2022/07/16 04:17:24;;;;;;;;;5.50;3.25;;;;;22.50;38.20;101785.75;4878448;28;45312;-64
2022/07/16 04:19:50;;;;;;;;;4.00;4.00;;;;;22.43;37.76;101785.28;4867589;29;46286;-64
2022/07/16 04:22:15;;;;;;;;;3.00;3.00;;;;;22.41;38.32;101789.09;4867534;29;45380;-64
2022/07/16 04:24:41;;;;;;;;;7.00;5.00;;;;;22.43;38.54;101789.84;4867670;29;45127;-64
2022/07/16 04:27:06;;;;;;;;;4.00;4.00;;;;;22.45;37.88;101791.47;4866218;29;45423;-64
2022/07/16 04:29:31;;;;;;;;;6.25;4.75;;;;;22.44;37.85;101784.31;4867541;29;45288;-64
2022/07/16 04:31:57;;;;;;;;;3.75;3.75;;;;;22.41;38.23;101784.50;4867390;29;45381;-64
2022/07/16 04:34:22;;;;;;;;;3.75;3.75;;;;;22.44;38.71;101794.31;4866977;29;59201;-63
2022/07/16 04:36:47;;;;;;;;;3.50;3.50;;;;;22.41;38.34;101794.53;4875734;29;46287;-63
2022/07/16 04:39:13;;;;;;;;;4.00;4.00;;;;;22.42;38.71;101798.97;4885045;29;45253;-64
2022/07/16 04:41:38;;;;;;;;;4.75;4.50;;;;;22.36;38.72;101792.09;4895886;29;45240;-64
2022/07/16 04:44:04;;;;;;;;;4.50;3.50;;;;;22.32;38.23;101804.13;4886672;29;45126;-64
2022/07/16 04:46:29;;;;;;;;;3.50;3.50;;;;;22.29;38.61;101802.50;4881908;29;46330;-64
2022/07/16 04:48:54;;;;;;;;;4.75;4.75;;;;;22.26;38.47;101799.94;4881779;29;47502;-63
2022/07/16 04:51:20;;;;;;;;;5.75;5.00;;;;;22.23;38.51;101800.16;4885537;29;45280;-64
2022/07/16 04:53:45;;;;;;;;;4.00;4.00;;;;;22.23;38.80;101802.84;4866850;29;45411;-63
2022/07/16 04:56:10;;;;;;;;;3.00;3.00;;;;;22.24;38.71;101804.63;4881304;29;48310;-64
2022/07/16 04:58:36;;;;;;;;;5.25;5.25;;;;;22.24;39.18;101811.91;4867231;29;45256;-64
2022/07/16 05:01:01;;;;;;;;;6.00;6.00;;;;;22.19;39.13;101817.66;4867074;29;45347;-64
2022/07/16 05:03:27;;;;;;;;;2.00;2.00;;;;;22.05;38.87;101799.47;4867118;29;45248;-64
2022/07/16 05:05:52;;;;;;;;;5.25;5.25;;;;;22.10;38.97;101818.22;4871743;29;45333;-63
2022/07/16 05:08:17;;;;;;;;;5.25;4.25;;;;;22.10;39.05;101813.69;4890142;29;45376;-63
2022/07/16 05:10:43;;;;;;;;;4.00;4.00;;;;;22.10;39.64;101815.50;4885722;29;46249;-63
2022/07/16 05:13:10;;;;;;;;;4.75;4.25;;;;;22.07;39.67;101815.69;4885490;29;45430;-63
2022/07/16 05:15:36;;;;;;;;;5.00;5.00;;;;;22.00;39.68;101810.66;4870560;29;47151;-65
2022/07/16 05:18:01;;;;;;;;;3.75;3.25;;;;;22.01;39.69;101811.53;4867070;29;45284;-66
2022/07/16 05:20:27;;;;;;;;;4.50;3.75;;;;;22.01;39.19;101814.25;4866874;29;46017;-64
2022/07/16 05:22:52;;;;;;;;;5.50;5.00;;;;;21.93;39.39;101803.00;4869830;29;45446;-63
2022/07/16 05:25:18;;;;;;;;;5.75;4.00;;;;;21.91;40.03;101802.22;4866405;29;46379;-64
2022/07/16 05:27:44;;;;;;;;;4.75;4.75;;;;;21.92;39.85;101804.84;4880847;29;45738;-63
2022/07/16 05:30:09;;;;;;;;;5.00;4.00;;;;;21.93;39.96;101809.28;4866770;29;45502;-63
2022/07/16 05:32:36;;;;;;;;;4.75;4.25;;;;;21.88;39.92;101783.38;4866476;29;45394;-64
2022/07/16 05:35:01;;;;;;;;;4.00;4.00;;;;;21.98;40.34;101803.56;4866444;29;46999;-64
2022/07/16 05:37:27;;;;;;;;;6.50;4.00;;;;;21.99;39.76;101803.47;4876616;29;45414;-64
2022/07/16 05:39:52;;;;;;;;;4.75;4.75;;;;;22.01;40.03;101800.66;4878071;29;45499;-64
2022/07/16 05:42:17;;;;;;;;;4.75;3.00;;;;;22.06;40.04;101806.69;4894903;28;45276;-63
2022/07/16 05:44:43;;;;;;;;;3.00;3.00;;;;;22.08;39.93;101812.00;4886167;29;53880;-64
2022/07/16 05:47:08;;;;;;;;;4.50;4.50;;;;;22.09;40.08;101811.91;4885280;29;45339;-63
2022/07/16 05:49:34;;;;;;;;;4.00;4.00;;;;;22.01;39.88;101804.25;4885089;29;45308;-64
2022/07/16 05:51:59;;;;;;;;;4.50;4.50;;;;;22.03;39.93;101823.19;4885101;29;45363;-64
2022/07/16 05:54:25;;;;;;;;;5.00;5.00;;;;;21.96;40.14;101821.81;4883875;29;45273;-64
2022/07/16 05:56:50;;;;;;;;;6.75;6.75;;;;;21.95;40.05;101831.84;4868279;29;45232;-64
2022/07/16 05:59:15;;;;;;;;;5.25;5.25;;;;;21.90;40.59;101825.81;4866138;29;45415;-64
2022/07/16 06:01:41;;;;;;;;;5.50;5.50;;;;;21.88;40.42;101826.88;4875573;29;45204;-64
2022/07/16 06:04:06;;;;;;;;;5.00;4.25;;;;;21.91;40.17;101834.84;4884605;29;46032;-64
2022/07/16 06:06:32;;;;;;;;;4.00;4.00;;;;;21.95;40.59;101836.38;4883781;29;45704;-64
2022/07/16 06:08:57;;;;;;;;;6.00;4.75;;;;;21.99;40.00;101837.94;4889013;29;45494;-64
2022/07/16 06:11:22;;;;;;;;;5.25;5.25;;;;;21.99;40.25;101837.94;4874889;29;45390;-64
2022/07/16 06:13:48;;;;;;;;;6.75;4.50;;;;;22.00;40.71;101845.13;4870874;29;47233;-65
2022/07/16 06:16:13;;;;;;;;;5.00;5.00;;;;;21.98;40.42;101847.94;4866208;29;45351;-64
2022/07/16 06:18:38;;;;;;;;;7.00;5.25;;;;;21.98;40.06;101847.94;4866034;29;45305;-65
2022/07/16 06:21:04;;;;;;;;;6.00;6.00;;;;;21.93;41.03;101857.34;4865906;29;45499;-65
2022/07/16 06:23:29;;;;;;;;;4.75;4.75;;;;;21.88;40.54;101852.19;4865564;29;46160;-65
2022/07/16 06:25:55;;;;;;;;;5.25;4.50;;;;;21.88;40.97;101856.78;4867958;29;45391;-66
2022/07/16 06:28:20;;;;;;;;;6.50;5.25;;;;;21.89;40.55;101851.25;4870817;29;45440;-65
2022/07/16 06:30:45;;;;;;;;;6.75;5.50;;;;;21.94;40.65;101856.41;4865715;29;45358;-65
2022/07/16 06:33:11;;;;;;;;;2.50;2.50;;;;;21.96;40.51;101859.88;4865189;29;53209;-68
2022/07/16 06:35:36;;;;;;;;;4.00;4.00;;;;;21.98;39.99;101868.81;4865862;29;45375;-69
2022/07/16 06:38:03;;;;;;;;;5.00;5.00;;;;;21.98;40.64;101866.97;4880627;29;45956;-68
2022/07/16 06:40:29;;;;;;;;;5.75;4.50;;;;;22.03;40.23;101869.41;4885146;29;45896;-69
2022/07/16 06:42:54;;;;;;;;;6.50;5.00;;;;;22.04;40.67;101870.28;4888073;28;45454;-66
2022/07/16 06:45:20;;;;;;;;;5.25;5.00;;;;;22.04;40.38;101865.72;4877680;28;45435;-68
2022/07/16 06:47:45;;;;;;;;;3.00;3.00;;;;;22.11;40.32;101872.50;4865605;29;45433;-68
2022/07/16 06:50:11;;;;;;;;;5.00;4.75;;;;;22.20;39.84;101888.25;4866826;29;45312;-68
2022/07/16 06:52:36;;;;;;;;;3.50;3.50;;;;;22.19;39.81;101869.31;4868244;29;45350;-68
2022/07/16 06:55:02;;;;;;;;;4.00;4.00;;;;;22.28;40.27;101882.34;4868965;29;45215;-68
2022/07/16 06:57:27;;;;;;;;;4.00;4.00;;;;;22.27;39.85;101872.41;4868642;29;45534;-68
2022/07/16 06:59:53;;;;;;;;;4.50;4.50;;;;;22.35;40.06;101888.25;4868843;29;46525;-68
2022/07/16 07:02:18;;;;;;;;;5.75;5.25;;;;;22.35;39.75;101897.31;4882703;29;51715;-68
2022/07/16 07:04:43;;;;;;;;;4.75;4.75;;;;;22.40;40.26;101891.56;4868235;29;54369;-68
2022/07/16 07:07:09;;;;;;;;;4.00;4.00;;;;;22.39;39.83;101887.09;4872958;29;45239;-68
2022/07/16 07:09:35;;;;;;;;;6.75;4.75;;;;;22.44;39.61;101890.41;4893991;29;45264;-69
2022/07/16 07:12:00;;;;;;;;;3.50;3.50;;;;;22.48;39.19;101891.94;4884866;29;45478;-68
2022/07/16 07:14:25;;;;;;;;;4.00;4.00;;;;;22.53;39.26;101891.66;4881117;29;45359;-69
2022/07/16 07:16:51;;;;;;;;;4.00;4.00;;;;;22.58;39.86;101903.97;4868852;29;45310;-69
2022/07/16 07:19:16;;;;;;;;;5.00;4.00;;;;;22.56;39.50;101894.19;4872189;29;48531;-69
2022/07/16 07:21:42;;;;;;;;;6.00;5.00;;;;;22.54;39.29;101887.97;4868345;29;45603;-69
2022/07/16 07:24:07;;;;;;;;;4.50;3.75;;;;;22.57;39.49;101893.22;4868076;29;45287;-68
2022/07/16 07:26:32;;;;;;;;;5.25;5.25;;;;;22.60;39.59;101889.41;4868391;29;45331;-69
2022/07/16 07:28:58;;;;;;;;;5.00;5.00;;;;;22.60;39.29;101882.09;4868263;29;45252;-68
2022/07/16 07:31:23;;;;;;;;;4.00;4.00;;;;;22.67;39.15;101896.19;4868218;29;45301;-71
2022/07/16 07:33:48;;;;;;;;;4.00;3.00;;;;;22.69;39.47;101892.41;4871984;29;45320;-69
2022/07/16 07:36:14;;;;;;;;;5.50;5.50;;;;;22.70;38.58;101904.16;4870492;29;45261;-69
2022/07/16 07:38:39;;;;;;;;;5.75;4.25;;;;;22.68;39.40;101898.81;4885859;29;45476;-69
2022/07/16 07:41:05;;;;;;;;;5.25;4.00;;;;;22.73;39.06;101901.25;4893183;29;56940;-68
2022/07/16 07:43:30;;;;;;;;;4.75;3.75;;;;;22.79;39.06;101898.13;4887382;28;45331;-69
2022/07/16 07:45:55;;;;;;;;;5.50;5.50;;;;;22.75;39.06;101902.91;4887191;29;45482;-69
2022/07/16 07:48:22;;;;;;;;;6.00;5.00;;;;;22.72;39.17;101885.88;4879974;29;45397;-69
2022/07/16 07:50:47;;;;;;;;;4.50;4.50;;;;;22.74;39.23;101881.22;4881161;29;45891;-69
2022/07/16 07:53:12;;;;;;;;;5.00;5.00;;;;;22.85;39.29;101900.41;4885824;29;45613;-69
2022/07/16 07:55:38;;;;;;;;;4.00;4.00;;;;;22.91;39.26;101904.59;4885328;29;45304;-69
2022/07/16 07:58:04;;;;;;;;;4.75;4.75;;;;;22.93;38.99;101886.31;4875889;29;48883;-69
2022/07/16 08:00:30;;;;;;;;;5.25;5.00;;;;;23.05;39.10;101893.66;4881544;29;47208;-70
2022/07/16 08:02:56;;;;;;;;;5.50;5.50;;;;;23.03;39.11;101889.28;4868537;29;45644;-69
2022/07/16 08:05:21;;;;;;;;;5.75;5.00;;;;;23.10;39.17;101896.09;4867485;29;45469;-69
2022/07/16 08:07:47;;;;;;;;;4.00;4.00;;;;;23.15;39.18;101893.06;4890046;28;45384;-69
2022/07/16 08:10:12;;;;;;;;;4.50;3.75;;;;;23.20;38.81;101908.13;4892651;28;45611;-69
2022/07/16 08:12:39;;;;;;;;;5.75;4.00;;;;;23.28;38.65;101902.16;4884572;29;45451;-69
2022/07/16 08:15:05;;;;;;;;;6.25;5.25;;;;;23.37;38.34;101898.81;4875840;29;45432;-69
2022/07/16 08:17:31;;;;;;;;;5.25;5.25;;;;;23.39;38.25;101896.88;4867684;29;45321;-69
2022/07/16 08:19:56;;;;;;;;;3.75;3.75;;;;;23.42;38.45;101901.22;4872821;29;45496;-69
2022/07/16 08:22:22;;;;;;;;;5.00;5.00;;;;;23.47;38.62;101908.13;4884725;29;45361;-69
2022/07/16 08:27:31;;;;;;;;;5.75;4.00;;;;;23.48;38.47;101903.53;4874655;29;45240;-69
2022/07/16 08:29:57;;;;;;;;;2.25;2.25;;;;;23.55;38.88;101904.84;4872659;29;46280;-70
2022/07/16 08:32:22;;;;;;;;;5.00;5.00;;;;;23.60;38.59;101902.66;4867546;29;45255;-68
2022/07/16 08:34:47;;;;;;;;;7.00;4.50;;;;;23.56;38.16;101881.22;4880984;29;45322;-69
2022/07/16 08:37:13;;;;;;;;;4.00;4.00;;;;;23.70;37.87;101900.19;4878042;29;45428;-69
2022/07/16 08:39:40;;;;;;;;;4.75;4.00;;;;;23.75;38.42;101899.88;4876596;29;45403;-69
2022/07/16 08:42:07;;;;;;;;;3.00;3.00;;;;;23.85;37.94;101901.00;4882747;29;45554;-69
2022/07/16 08:44:33;;;;;;;;;3.75;3.25;;;;;23.88;37.93;101897.19;4882207;29;45325;-66
2022/07/16 08:47:00;;;;;;;;;4.00;4.00;;;;;23.92;38.01;101894.13;4887250;29;45419;-66
2022/07/16 08:49:26;;;;;;;;;3.50;1.50;;;;;23.96;37.81;101906.56;4884338;29;46861;-66
2022/07/16 08:51:56;;;;;;;;;5.00;3.00;;;;;24.05;37.68;101916.81;4867249;29;45197;-66
2022/07/16 08:54:21;;;;;;;;;3.25;3.25;;;;;24.11;37.75;101906.47;4867071;29;45442;-66
2022/07/16 08:56:48;;;;;;;;;4.25;4.25;;;;;24.12;37.51;101905.47;4867224;29;45363;-66
2022/07/16 08:59:14;;;;;;;;;4.00;4.00;;;;;24.22;37.94;101912.00;4865926;29;47042;-66
2022/07/16 09:01:39;;;;;;;;;6.75;4.00;;;;;24.29;37.30;101913.34;4865077;29;45442;-66
2022/07/16 09:04:05;;;;;;;;;4.00;3.00;;;;;24.31;37.89;101900.44;4880740;29;45636;-66
2022/07/16 09:06:31;;;;;;;;;4.50;4.50;;;;;24.39;37.38;101908.06;4865539;29;45660;-65
2022/07/16 09:08:57;;;;;;;;;8.25;5.25;;;;;24.46;37.55;101906.66;4879834;29;45508;-66
2022/07/16 09:11:25;;;;;;;;;7.00;5.00;;;;;24.48;36.43;101912.84;4872789;29;45340;-66
2022/07/16 09:14:10;;;;;;;;;4.75;4.25;;;;;24.51;36.83;101917.25;4881439;29;45542;-66
2022/07/16 09:16:42;;;;;;;;;4.75;4.00;;;;;24.53;36.39;101920.72;4885361;29;45352;-65
2022/07/16 09:19:10;;;;;;;;;6.75;5.00;;;;;24.54;36.36;101917.00;4877246;29;45498;-66
2022/07/16 09:21:36;;;;;;;;;4.00;4.00;;;;;24.55;37.17;101913.31;4888418;29;46930;-65
2022/07/16 09:24:02;;;;;;;;;4.50;4.50;;;;;24.59;36.83;101914.81;4891848;29;45459;-63
2022/07/16 09:26:28;;;;;;;;;4.00;4.00;;;;;24.65;36.83;101921.72;4866693;29;45285;-63
2022/07/16 09:28:54;;;;;;;;;5.75;4.00;;;;;24.68;35.88;101918.75;4882446;29;46717;-64
2022/07/16 09:31:41;;;;;;;;;5.00;5.00;;;;;24.68;35.99;101907.84;4873585;29;45251;-63
2022/07/16 09:34:16;;;;;;;;;4.50;4.50;;;;;24.72;36.38;101904.75;4890299;29;45213;-64
2022/07/16 09:36:56;;;;;;;;;4.75;4.75;;;;;24.74;36.08;101913.72;4870131;29;45549;-66
2022/07/16 09:39:21;;;;;;;;;4.00;4.00;;;;;24.73;36.73;101911.09;4873897;29;45658;-66
2022/07/16 09:41:47;;;;;;;;;3.75;3.50;;;;;24.78;36.01;101909.75;4876482;29;45465;-65
2022/07/16 09:44:22;;;;;;;;;4.00;4.00;;;;;24.83;36.19;101900.38;4881822;29;45489;-66
2022/07/16 09:47:04;;;;;;;;;4.25;3.75;;;;;24.91;35.08;101900.66;4870016;29;45474;-65
2022/07/16 09:49:30;;;;;;;;;2.25;2.25;;;;;24.92;35.27;101905.13;4883491;29;47884;-66
2022/07/16 09:51:56;;;;;;;;;4.75;3.50;;;;;24.92;34.75;101903.25;4884825;29;45401;-65
2022/07/16 09:54:26;;;;;;;;;3.75;3.75;;;;;24.99;34.68;101891.88;4883890;29;45418;-65
2022/07/16 09:57:13;;;;;;;;;2.00;2.00;;;;;25.03;34.74;101899.72;4882841;29;45652;-66
2022/07/16 09:59:39;;;;;;;;;4.50;4.50;;;;;25.07;34.53;101914.03;4868979;29;45452;-66
2022/07/16 10:02:05;;;;;;;;;4.00;4.00;;;;;25.11;34.56;101904.63;4877034;29;45464;-66
2022/07/16 10:04:31;;;;;;;;;3.25;3.00;;;;;25.18;34.39;101919.56;4884213;29;45421;-66
2022/07/16 10:06:57;;;;;;;;;3.00;3.00;;;;;25.21;34.67;101922.06;4883946;29;45307;-66
2022/07/16 10:09:23;;;;;;;;;4.00;4.00;;;;;25.19;34.03;101921.28;4875296;29;47070;-65
2022/07/16 10:11:50;;;;;;;;;5.00;3.75;;;;;25.15;34.63;101915.19;4875973;29;45413;-66
2022/07/16 10:14:15;;;;;;;;;5.75;4.50;;;;;25.20;33.99;101908.53;4895275;29;45306;-66
2022/07/16 10:16:45;;;;;;;;;6.00;5.25;;;;;25.24;34.48;101916.38;4884482;29;45400;-66
2022/07/16 10:19:12;;;;;;;;;4.00;4.00;;;;;25.27;34.51;101910.69;4867076;29;45432;-66
2022/07/16 10:21:39;;;;;;;;;4.75;4.75;;;;;25.34;33.98;101913.81;4867061;29;45557;-66
2022/07/16 10:24:10;;;;;;;;;4.75;3.75;;;;;25.38;33.81;101920.81;4876207;29;45375;-66
2022/07/16 10:26:36;;;;;;;;;4.50;4.00;;;;;25.38;33.90;101906.28;4868872;29;45409;-66
2022/07/16 10:29:03;;;;;;;;;3.00;3.00;;;;;25.45;33.76;101902.94;4878147;29;45366;-66
2022/07/16 10:34:34;;;;;;;;;3.25;3.25;;;;;25.55;33.77;101902.22;4888323;29;45281;-65
2022/07/16 10:37:00;;;;;;;;;6.50;5.00;;;;;25.58;33.43;101902.00;4877387;29;45946;-66
2022/07/16 10:39:26;;;;;;;;;4.00;4.00;;;;;25.59;34.29;101903.72;4865875;29;45370;-65
2022/07/16 10:41:56;;;;;;;;;4.50;4.50;;;;;25.62;33.40;101903.50;4890406;29;45287;-66
2022/07/16 10:44:46;;;;;;;;;4.00;4.00;;;;;25.64;33.73;101899.66;4894204;28;45310;-66
2022/07/16 10:47:13;;;;;;;;;6.00;4.75;;;;;25.67;32.84;101902.13;4874872;29;45221;-66
2022/07/16 10:49:39;;;;;;;;;5.00;5.00;;;;;25.72;33.89;101903.66;4882816;29;45343;-66
2022/07/16 10:52:15;;;;;;;;;5.25;4.50;;;;;25.76;33.76;101903.28;4874656;29;45405;-66
2022/07/16 10:54:59;;;;;;;;;3.50;3.25;;;;;25.82;34.30;101901.94;4865244;29;45379;-66
2022/07/16 10:57:36;;;;;;;;;4.25;4.25;;;;;25.84;33.11;101905.41;4874529;29;45466;-66
2022/07/16 11:00:05;;;;;;;;;7.50;5.50;;;;;25.83;33.77;101896.34;4874640;29;46290;-65
2022/07/16 11:02:37;;;;;;;;;3.00;3.00;;;;;25.86;32.82;101901.56;4881222;29;45301;-66
2022/07/16 11:05:03;;;;;;;;;5.00;5.00;;;;;25.89;34.23;101900.44;4865512;29;45719;-65
2022/07/16 11:07:33;;;;;;;;;5.00;5.00;;;;;25.95;33.59;101899.09;4895634;29;45315;-65
2022/07/16 11:09:59;;;;;;;;;4.25;4.25;;;;;25.97;33.52;101897.13;4892169;28;45419;-65
2022/07/16 11:12:27;;;;;;;;;5.75;4.25;;;;;26.02;32.39;101906.72;4881900;29;45263;-65
2022/07/16 11:14:55;;;;;;;;;4.25;3.25;;;;;26.09;33.34;101901.63;4874763;29;45310;-65
2022/07/16 11:17:25;;;;;;;;;4.50;4.25;;;;;26.15;32.96;101900.28;4865112;29;45534;-65
2022/07/16 11:19:56;;;;;;;;;4.00;4.00;;;;;26.16;32.03;101897.41;4875441;29;45382;-65
2022/07/16 11:22:27;;;;;;;;;5.25;5.00;;;;;26.22;32.20;101894.16;4868952;29;45772;-68
2022/07/16 11:24:58;;;;;;;;;4.75;4.00;;;;;26.28;32.58;101900.13;4872619;29;45437;-68
2022/07/16 11:27:31;;;;;;;;;4.00;4.00;;;;;26.24;32.14;101884.00;4872122;29;45478;-68
2022/07/16 11:29:57;;;;;;;;;4.00;4.00;;;;;26.29;31.91;101885.47;4867176;29;45434;-68
2022/07/16 11:32:24;;;;;;;;;4.50;4.50;;;;;26.34;32.09;101886.81;4881702;29;45593;-68
2022/07/16 11:34:49;;;;;;;;;4.00;4.00;;;;;26.37;31.56;101891.19;4879260;29;45724;-67